Back to Top

Language: 

My Weather Underground Personal Weather Station Historical Data with Graphs...

Delerius Weather Station Historical Data
Daily Summary for September 11, 2017 Units:  Metric    English   Both
« Previous Day
Next Day »
Daily Weekly Monthly Yearly Custom
  High: Low: Average:
Temperature: 17.2 °C 10.6 °C 13.2 °C
Dew Point: 13.2 °C 8.1 °C 10.5 °C
Humidity: 95 % 68 % 84 %
Wind Speed: 33.8 km/h 4.8 km/h 20 km/h
Wind Gust: 56.3 km/h - -
Wind:- - West
Pressure: 996.5 hPa 981.6 hPa -
Precipitation: 3.3 mm    
Historical Graphs
 
 
Tabular Data for September 11, 2017
Time Temperature Dew Point Pressure Wind Wind Speed Wind Gust Humidity Rainfall Rate (Hourly) solar Conditions
00:04 11.1 °C 8.3 °C 985.3 hPa SW 16.1 km/h 32.2 km/h 83 % 0 mm 0 W/m2
00:09 11.1 °C 8.3 °C 985.3 hPa SW 14.5 km/h 24.1 km/h 83 % 0 mm 0 W/m2
00:14 11.1 °C 8.5 °C 985.3 hPa SW 14.5 km/h 22.5 km/h 84 % 0 mm 0 W/m2
00:19 11 °C 8.4 °C 985.3 hPa SW 14.5 km/h 24.1 km/h 84 % 0 mm 0 W/m2
00:24 10.9 °C 8.3 °C 985.3 hPa SW 14.5 km/h 24.1 km/h 84 % 0 mm 0 W/m2
00:29 10.9 °C 8.5 °C 985.3 hPa SW 12.9 km/h 20.9 km/h 85 % 0 mm 0 W/m2
00:34 10.8 °C 8.4 °C 985 hPa WSW 11.3 km/h 22.5 km/h 85 % 0 mm 0 W/m2
00:39 10.8 °C 8.4 °C 985 hPa SW 12.9 km/h 22.5 km/h 85 % 0 mm 0 W/m2
00:44 10.8 °C 8.4 °C 985 hPa SW 12.9 km/h 24.1 km/h 85 % 0 mm 0 W/m2
00:49 10.9 °C 8.5 °C 985 hPa SW 14.5 km/h 24.1 km/h 85 % 0 mm 0 W/m2
00:54 10.9 °C 8.3 °C 985 hPa SW 14.5 km/h 24.1 km/h 84 % 0 mm 0 W/m2
00:59 10.9 °C 8.3 °C 985 hPa SW 14.5 km/h 24.1 km/h 84 % 0 mm 0 W/m2
01:04 10.9 °C 8.3 °C 985 hPa SW 14.5 km/h 24.1 km/h 84 % 0 mm 0 W/m2
01:09 11 °C 8.4 °C 985 hPa SW 14.5 km/h 24.1 km/h 84 % 0 mm 0 W/m2
01:14 11 °C 8.2 °C 985 hPa SW 12.9 km/h 22.5 km/h 83 % 0 mm 0 W/m2
01:19 11 °C 8.2 °C 985 hPa SW 14.5 km/h 25.7 km/h 83 % 0 mm 0 W/m2
01:24 10.9 °C 8.1 °C 984.6 hPa SW 14.5 km/h 29 km/h 83 % 0 mm 0 W/m2
01:29 10.9 °C 8.1 °C 984.6 hPa SW 16.1 km/h 30.6 km/h 83 % 0 mm 0 W/m2
01:34 10.9 °C 8.1 °C 984.6 hPa SW 17.7 km/h 32.2 km/h 83 % 0 mm 0 W/m2
01:39 11 °C 8.2 °C 984.6 hPa SW 16.1 km/h 32.2 km/h 83 % 0 mm 0 W/m2
01:44 11 °C 8.2 °C 984.6 hPa SW 17.7 km/h 33.8 km/h 83 % 0 mm 0 W/m2
01:49 11 °C 8.2 °C 984.6 hPa SW 17.7 km/h 33.8 km/h 83 % 0 mm 0 W/m2
01:54 11.1 °C 8.3 °C 984.3 hPa SW 16.1 km/h 30.6 km/h 83 % 0 mm 0 W/m2
01:59 11 °C 8.2 °C 984.3 hPa SW 16.1 km/h 30.6 km/h 83 % 0 mm 0 W/m2
02:04 11 °C 8.4 °C 984.3 hPa SW 16.1 km/h 30.6 km/h 84 % 0 mm 0 W/m2
02:09 10.9 °C 8.5 °C 984.3 hPa SW 19.3 km/h 33.8 km/h 85 % 0 mm 0 W/m2
02:11 10.8 °C 8.4 °C 984.3 hPa SW 19.3 km/h 33.8 km/h 85 % 0 mm 0 W/m2
02:16 10.8 °C 8.6 °C 984.3 hPa SW 16.1 km/h 24.1 km/h 86 % 0 mm 0 W/m2
02:21 10.7 °C 8.6 °C 984 hPa SSW 17.7 km/h 29 km/h 87 % 0 mm 0 W/m2
02:26 10.7 °C 8.6 °C 984 hPa SSW 16.1 km/h 29 km/h 87 % 0 mm 0 W/m2
02:31 10.7 °C 8.8 °C 984 hPa SSW 14.5 km/h 22.5 km/h 88 % 0 mm 0 W/m2
02:36 10.7 °C 8.8 °C 984 hPa SSW 14.5 km/h 24.1 km/h 88 % 0 mm 0 W/m2
02:41 10.7 °C 8.8 °C 983.6 hPa SSW 16.1 km/h 30.6 km/h 88 % 0 mm 0 W/m2
02:46 10.7 °C 8.9 °C 983.6 hPa SSW 14.5 km/h 30.6 km/h 89 % 0 mm 0 W/m2
02:51 10.6 °C 8.9 °C 983.6 hPa SSW 14.5 km/h 24.1 km/h 89 % 0 mm 0 W/m2
02:56 10.6 °C 8.9 °C 983.3 hPa SSW 16.1 km/h 29 km/h 89 % 0 mm 0 W/m2
03:01 10.6 °C 8.9 °C 983.3 hPa SSW 16.1 km/h 29 km/h 89 % 0 mm 0 W/m2
03:06 10.7 °C 8.9 °C 983.3 hPa SSW 16.1 km/h 30.6 km/h 89 % 0 mm 0 W/m2
03:11 10.7 °C 9.1 °C 983.3 hPa SSW 14.5 km/h 30.6 km/h 90 % 0 mm 0 W/m2
03:16 10.7 °C 9.1 °C 983 hPa SSW 16.1 km/h 30.6 km/h 90 % 0.25 mm 0 W/m2
03:21 10.7 °C 9.3 °C 983 hPa SSW 17.7 km/h 30.6 km/h 91 % 0.25 mm 0 W/m2
03:26 10.7 °C 9.3 °C 983 hPa SSW 14.5 km/h 25.7 km/h 91 % 0.25 mm 0 W/m2
03:32 10.7 °C 9.3 °C 983 hPa SSW 16.1 km/h 29 km/h 91 % 0.25 mm 0 W/m2
03:37 10.7 °C 9.3 °C 982.6 hPa SSW 16.1 km/h 29 km/h 91 % 0.25 mm 0 W/m2
03:42 10.7 °C 9.3 °C 982.6 hPa SSW 16.1 km/h 37 km/h 91 % 0.25 mm 0 W/m2
03:47 10.7 °C 9.3 °C 982.6 hPa SSW 17.7 km/h 37 km/h 91 % 0.25 mm 0 W/m2
03:52 10.8 °C 9.6 °C 982.6 hPa SSW 14.5 km/h 30.6 km/h 92 % 0.25 mm 0 W/m2
03:57 10.8 °C 9.6 °C 982.6 hPa SSW 12.9 km/h 22.5 km/h 92 % 0.25 mm 0 W/m2
04:02 10.8 °C 9.6 °C 982.6 hPa SSW 12.9 km/h 22.5 km/h 92 % 0.25 mm 0 W/m2
04:07 10.8 °C 9.7 °C 982.6 hPa SSW 14.5 km/h 30.6 km/h 93 % 0.25 mm 0 W/m2
04:12 10.8 °C 9.7 °C 982.3 hPa SSW 16.1 km/h 30.6 km/h 93 % 0.25 mm 0 W/m2
04:18 10.9 °C 9.8 °C 982.3 hPa SW 14.5 km/h 24.1 km/h 93 % 0 mm 0 W/m2
04:20 10.9 °C 9.8 °C 982.3 hPa SW 12.9 km/h 22.5 km/h 93 % 0 mm 0 W/m2
04:23 10.9 °C 9.8 °C 982.3 hPa SW 12.9 km/h 19.3 km/h 93 % 0 mm 0 W/m2
04:24 10.9 °C 9.8 °C 982.3 hPa SW 11.3 km/h 19.3 km/h 93 % 0 mm 0 W/m2
04:26 10.9 °C 9.8 °C 982.3 hPa SW 11.3 km/h 19.3 km/h 93 % 0 mm 0 W/m2
04:29 11 °C 9.9 °C 982.3 hPa SW 14.5 km/h 37 km/h 93 % 0 mm 0 W/m2
04:31 11.1 °C 10 °C 982.3 hPa SW 16.1 km/h 37 km/h 93 % 0 mm 0 W/m2
04:33 11.1 °C 10 °C 982.3 hPa SW 16.1 km/h 37 km/h 93 % 0 mm 0 W/m2
04:38 11.3 °C 10.1 °C 982.3 hPa SW 20.9 km/h 37 km/h 92 % 0 mm 0 W/m2
04:39 11.3 °C 10.1 °C 981.9 hPa SW 19.3 km/h 40.2 km/h 92 % 0 mm 0 W/m2
04:44 11.5 °C 10.1 °C 981.9 hPa SW 20.9 km/h 40.2 km/h 91 % 0 mm 0 W/m2
04:49 11.6 °C 10 °C 981.9 hPa WSW 19.3 km/h 40.2 km/h 90 % 0 mm 0 W/m2
04:54 11.7 °C 10.1 °C 981.9 hPa SW 17.7 km/h 33.8 km/h 90 % 0 mm 0 W/m2
04:59 11.8 °C 10.1 °C 981.9 hPa SW 17.7 km/h 33.8 km/h 89 % 0 mm 0 W/m2
05:04 11.8 °C 10.1 °C 981.9 hPa WSW 17.7 km/h 33.8 km/h 89 % 0 mm 0 W/m2
05:09 11.9 °C 10.2 °C 982.3 hPa SW 17.7 km/h 29 km/h 89 % 0 mm 0 W/m2
05:14 11.9 °C 10.2 °C 981.9 hPa SW 17.7 km/h 37 km/h 89 % 0 mm 0 W/m2
05:19 12 °C 10.2 °C 981.9 hPa WSW 17.7 km/h 37 km/h 89 % 0 mm 0 W/m2
05:24 12.1 °C 10.3 °C 981.9 hPa SW 17.7 km/h 32.2 km/h 89 % 0 mm 0 W/m2
05:29 12.1 °C 10.3 °C 981.9 hPa WSW 20.9 km/h 38.6 km/h 89 % 0.25 mm 0 W/m2
05:34 12 °C 10.2 °C 981.6 hPa WSW 20.9 km/h 38.6 km/h 89 % 0.25 mm 0 W/m2
05:39 12.1 °C 10.3 °C 981.9 hPa WSW 22.5 km/h 40.2 km/h 89 % 0.25 mm 0 W/m2
05:44 12.1 °C 10.3 °C 981.9 hPa WSW 22.5 km/h 40.2 km/h 89 % 0.25 mm 0 W/m2
05:49 12.1 °C 10.3 °C 981.9 hPa WSW 17.7 km/h 35.4 km/h 89 % 0.25 mm 0 W/m2
05:55 12.1 °C 10.3 °C 981.9 hPa WSW 19.3 km/h 40.2 km/h 89 % 0.25 mm 0 W/m2
05:59 12.1 °C 10.3 °C 981.9 hPa WSW 20.9 km/h 40.2 km/h 89 % 0.25 mm 0 W/m2
06:04 12.1 °C 10.5 °C 981.9 hPa WSW 19.3 km/h 35.4 km/h 90 % 0.25 mm 0 W/m2
06:09 12.1 °C 10.5 °C 981.9 hPa WSW 20.9 km/h 37 km/h 90 % 0.25 mm 0 W/m2
06:14 12.1 °C 10.5 °C 982.3 hPa WSW 19.3 km/h 37 km/h 90 % 0.25 mm 0 W/m2
06:20 12.1 °C 10.5 °C 982.3 hPa WSW 17.7 km/h 35.4 km/h 90 % 0.51 mm 0 W/m2
06:25 12 °C 10.4 °C 982.3 hPa WSW 16.1 km/h 33.8 km/h 90 % 0.51 mm 0 W/m2
06:30 11.9 °C 10.5 °C 982.3 hPa WSW 16.1 km/h 29 km/h 91 % 0.25 mm 0 W/m2
06:35 11.9 °C 10.5 °C 982.3 hPa WSW 16.1 km/h 29 km/h 91 % 0.25 mm 0 W/m2
06:40 11.8 °C 10.4 °C 982.3 hPa WSW 16.1 km/h 33.8 km/h 91 % 0.25 mm 0 W/m2
06:45 11.9 °C 10.5 °C 982.3 hPa West 14.5 km/h 33.8 km/h 91 % 0.25 mm 7 W/m2
06:50 11.9 °C 10.5 °C 982.6 hPa West 12.9 km/h 29 km/h 91 % 0.25 mm 5 W/m2
06:55 11.8 °C 10.4 °C 982.6 hPa West 12.9 km/h 24.1 km/h 91 % 0.25 mm 7 W/m2
07:00 11.9 °C 10.5 °C 982.6 hPa WSW 14.5 km/h 24.1 km/h 91 % 0.25 mm 14 W/m2
07:05 11.9 °C 10.5 °C 982.6 hPa WSW 16.1 km/h 25.7 km/h 91 % 0.25 mm 30 W/m2
07:10 11.9 °C 10.5 °C 982.6 hPa WSW 16.1 km/h 25.7 km/h 91 % 0.25 mm 33 W/m2
07:15 12 °C 10.6 °C 982.6 hPa WSW 16.1 km/h 30.6 km/h 91 % 0.25 mm 37 W/m2
07:20 12.1 °C 10.7 °C 983 hPa WSW 16.1 km/h 30.6 km/h 91 % 0 mm 42 W/m2
07:22 12.1 °C 10.7 °C 983 hPa WSW 17.7 km/h 30.6 km/h 91 % 0 mm 33 W/m2
07:27 12.1 °C 10.7 °C 983 hPa WSW 16.1 km/h 29 km/h 91 % 0 mm 47 W/m2
07:32 12.1 °C 10.7 °C 983 hPa WSW 14.5 km/h 24.1 km/h 91 % 0 mm 39 W/m2
07:37 12.1 °C 10.7 °C 983 hPa WSW 16.1 km/h 29 km/h 91 % 0 mm 39 W/m2
07:42 12.2 °C 10.8 °C 983 hPa West 17.7 km/h 35.4 km/h 91 % 0 mm 56 W/m2
07:47 12.2 °C 10.8 °C 983 hPa WSW 16.1 km/h 35.4 km/h 91 % 0 mm 42 W/m2
07:52 12.2 °C 10.8 °C 983 hPa WSW 14.5 km/h 25.7 km/h 91 % 0.25 mm 14 W/m2
07:57 12.2 °C 10.8 °C 983 hPa WSW 14.5 km/h 25.7 km/h 91 % 0.51 mm 25 W/m2
08:02 12.2 °C 10.8 °C 983 hPa WSW 14.5 km/h 25.7 km/h 91 % 0.51 mm 16 W/m2
08:07 12.1 °C 10.7 °C 983 hPa WSW 14.5 km/h 25.7 km/h 91 % 0.51 mm 12 W/m2
08:12 12 °C 10.6 °C 983 hPa SW 14.5 km/h 25.7 km/h 91 % 0.76 mm 7 W/m2
08:17 11.9 °C 10.7 °C 983 hPa WSW 12.9 km/h 25.7 km/h 92 % 1.27 mm 5 W/m2
08:22 11.9 °C 10.7 °C 983.3 hPa WSW 12.9 km/h 24.1 km/h 92 % 1.52 mm 7 W/m2
08:27 11.8 °C 10.7 °C 983.3 hPa WSW 12.9 km/h 24.1 km/h 93 % 1.52 mm 7 W/m2
08:32 11.8 °C 10.7 °C 983.3 hPa West 11.3 km/h 19.3 km/h 93 % 2.03 mm 23 W/m2
08:37 11.8 °C 10.7 °C 983.3 hPa West 9.7 km/h 17.7 km/h 93 % 2.03 mm 39 W/m2
08:42 11.8 °C 10.7 °C 983.3 hPa West 8 km/h 14.5 km/h 93 % 2.03 mm 40 W/m2
08:47 11.8 °C 10.7 °C 983.3 hPa West 8 km/h 20.9 km/h 93 % 2.03 mm 21 W/m2
08:52 11.8 °C 10.7 °C 983.6 hPa West 11.3 km/h 20.9 km/h 93 % 1.78 mm 12 W/m2
08:57 11.8 °C 10.7 °C 983.6 hPa West 12.9 km/h 25.7 km/h 93 % 1.78 mm 33 W/m2
09:02 11.8 °C 10.7 °C 983.6 hPa West 12.9 km/h 25.7 km/h 93 % 2.03 mm 58 W/m2
09:07 11.7 °C 10.8 °C 983.6 hPa West 12.9 km/h 22.5 km/h 94 % 2.03 mm 77 W/m2
09:12 11.8 °C 10.9 °C 983.6 hPa West 9.7 km/h 22.5 km/h 94 % 1.52 mm 69 W/m2
09:17 11.8 °C 10.9 °C 983.6 hPa West 6.4 km/h 11.3 km/h 94 % 1.27 mm 81 W/m2
09:22 11.8 °C 10.9 °C 984 hPa West 4.8 km/h 9.7 km/h 94 % 1.02 mm 107 W/m2
09:27 12 °C 11.2 °C 984 hPa West 8 km/h 19.3 km/h 95 % 0.76 mm 114 W/m2
09:32 12.2 °C 11.4 °C 984 hPa West 12.9 km/h 29 km/h 95 % 0.51 mm 97 W/m2
09:37 12.3 °C 11.4 °C 984 hPa West 14.5 km/h 29 km/h 94 % 0.51 mm 62 W/m2
09:42 12.3 °C 11.4 °C 984 hPa West 14.5 km/h 22.5 km/h 94 % 0.51 mm 37 W/m2
09:47 12.3 °C 11.2 °C 984 hPa West 11.3 km/h 22.5 km/h 93 % 0.51 mm 42 W/m2
09:52 12.3 °C 11.2 °C 984.3 hPa West 9.7 km/h 17.7 km/h 93 % 0.51 mm 47 W/m2
09:57 12.2 °C 11.1 °C 984.6 hPa West 11.3 km/h 20.9 km/h 93 % 0.25 mm 54 W/m2
10:02 12.2 °C 11.1 °C 984.6 hPa West 12.9 km/h 22.5 km/h 93 % 0 mm 86 W/m2
10:07 12.3 °C 11.1 °C 984.6 hPa West 14.5 km/h 24.1 km/h 92 % 0 mm 109 W/m2
10:12 12.4 °C 11.1 °C 984.6 hPa West 12.9 km/h 24.1 km/h 92 % 0 mm 93 W/m2
10:17 12.5 °C 11.2 °C 984.6 hPa West 12.9 km/h 24.1 km/h 92 % 0 mm 104 W/m2
10:22 12.6 °C 11.3 °C 984.6 hPa West 11.3 km/h 22.5 km/h 92 % 0 mm 153 W/m2
10:27 13 °C 11.9 °C 984.6 hPa West 11.3 km/h 22.5 km/h 93 % 0 mm 761 W/m2
10:32 13.3 °C 12 °C 984.6 hPa West 12.9 km/h 24.1 km/h 92 % 0 mm 153 W/m2
10:37 13.5 °C 12.2 °C 985 hPa West 16.1 km/h 33.8 km/h 92 % 0 mm 199 W/m2
10:42 13.8 °C 12.3 °C 985 hPa West 17.7 km/h 33.8 km/h 91 % 0 mm 789 W/m2
10:47 14.2 °C 12.6 °C 985 hPa West 17.7 km/h 29 km/h 90 % 0 mm 248 W/m2
10:52 14.5 °C 12.6 °C 985 hPa WNW 19.3 km/h 40.2 km/h 88 % 0 mm 214 W/m2
10:57 14.5 °C 12.2 °C 985 hPa WNW 20.9 km/h 40.2 km/h 86 % 0 mm 162 W/m2
11:02 14.4 °C 12.3 °C 985.3 hPa WNW 19.3 km/h 38.6 km/h 87 % 0 mm 192 W/m2
11:07 14.5 °C 12.3 °C 985 hPa West 16.1 km/h 32.2 km/h 87 % 0 mm 708 W/m2
11:12 14.8 °C 12.5 °C 985 hPa West 17.7 km/h 32.2 km/h 86 % 0 mm 378 W/m2
11:17 14.9 °C 12.2 °C 985.3 hPa West 20.9 km/h 41.8 km/h 84 % 0 mm 302 W/m2
11:22 15 °C 12.5 °C 985.3 hPa West 20.9 km/h 41.8 km/h 85 % 0 mm 327 W/m2
11:27 15 °C 12.5 °C 985.3 hPa West 19.3 km/h 32.2 km/h 85 % 0 mm 134 W/m2
11:32 14.7 °C 12.4 °C 985.3 hPa West 19.3 km/h 33.8 km/h 86 % 0 mm 165 W/m2
11:37 14.4 °C 12.1 °C 985.3 hPa West 19.3 km/h 35.4 km/h 86 % 0 mm 687 W/m2
11:42 14.8 °C 12.7 °C 985.3 hPa West 17.7 km/h 35.4 km/h 87 % 0 mm 719 W/m2
11:47 15.3 °C 12.9 °C 985.3 hPa West 17.7 km/h 35.4 km/h 86 % 0 mm 752 W/m2
11:52 15.5 °C 12.4 °C 985.7 hPa West 19.3 km/h 37 km/h 82 % 0 mm 777 W/m2
11:58 15.5 °C 12.4 °C 985.7 hPa West 20.9 km/h 40.2 km/h 82 % 0 mm 459 W/m2
12:03 15.9 °C 13 °C 985.7 hPa West 19.3 km/h 40.2 km/h 83 % 0 mm 895 W/m2
12:08 16.6 °C 12.9 °C 985.7 hPa West 20.9 km/h 40.2 km/h 79 % 0 mm 805 W/m2
12:13 16.6 °C 12.6 °C 985.7 hPa West 24.1 km/h 40.2 km/h 77 % 0 mm 153 W/m2
12:18 16.1 °C 12.8 °C 986 hPa West 24.1 km/h 41.8 km/h 81 % 0.25 mm 155 W/m2
12:23 15.3 °C 12.4 °C 986 hPa West 25.7 km/h 46.7 km/h 83 % 0.25 mm 306 W/m2
12:28 15.3 °C 12.9 °C 986 hPa West 22.5 km/h 46.7 km/h 86 % 0.25 mm 689 W/m2
12:33 15.4 °C 12.7 °C 986 hPa West 22.5 km/h 46.7 km/h 84 % 0.25 mm 230 W/m2
12:38 15.3 °C 12.4 °C 986 hPa West 25.7 km/h 46.7 km/h 83 % 0.25 mm 805 W/m2
12:43 15.6 °C 12.9 °C 986.3 hPa West 24.1 km/h 41.8 km/h 84 % 0.25 mm 805 W/m2
12:48 15.3 °C 12.6 °C 986.3 hPa West 25.7 km/h 41.8 km/h 84 % 0.51 mm 67 W/m2
12:53 14.7 °C 12.2 °C 986.3 hPa West 25.7 km/h 41.8 km/h 85 % 0.51 mm 63 W/m2
12:58 14.3 °C 12 °C 986.3 hPa West 25.7 km/h 48.3 km/h 86 % 0.51 mm 81 W/m2
13:03 14.1 °C 11.9 °C 986.7 hPa West 24.1 km/h 48.3 km/h 87 % 0.51 mm 95 W/m2
13:08 13.8 °C 11.8 °C 986.7 hPa West 20.9 km/h 37 km/h 88 % 0.51 mm 156 W/m2
13:13 13.7 °C 11.9 °C 986.7 hPa West 19.3 km/h 35.4 km/h 89 % 0.51 mm 211 W/m2
13:18 13.7 °C 11.9 °C 986.7 hPa West 19.3 km/h 33.8 km/h 89 % 0.25 mm 278 W/m2
13:23 13.9 °C 12.1 °C 986.7 hPa West 20.9 km/h 37 km/h 89 % 0.25 mm 742 W/m2
13:28 14.4 °C 12.6 °C 986.7 hPa West 22.5 km/h 37 km/h 89 % 0.25 mm 696 W/m2
13:33 14.9 °C 13.1 °C 986.7 hPa West 22.5 km/h 38.6 km/h 89 % 0.25 mm 691 W/m2
13:38 15.3 °C 12.8 °C 987 hPa West 25.7 km/h 49.9 km/h 85 % 0.25 mm 710 W/m2
13:43 15.7 °C 12.8 °C 987 hPa WNW 30.6 km/h 49.9 km/h 83 % 0.25 mm 863 W/m2
13:48 16 °C 12.9 °C 987 hPa WNW 29 km/h 48.3 km/h 82 % 0 mm 190 W/m2
13:53 16 °C 12.6 °C 987.4 hPa WNW 27.4 km/h 41.8 km/h 80 % 0 mm 188 W/m2
13:58 15.9 °C 12.4 °C 987.4 hPa WNW 24.1 km/h 45.1 km/h 80 % 0 mm 67 W/m2
14:03 15.6 °C 11.9 °C 987.4 hPa WNW 24.1 km/h 45.1 km/h 79 % 0 mm 90 W/m2
14:08 15.6 °C 12.3 °C 987.7 hPa WNW 24.1 km/h 38.6 km/h 81 % 0 mm 192 W/m2
14:13 15.8 °C 12.3 °C 987.7 hPa West 25.7 km/h 51.5 km/h 80 % 0 mm 768 W/m2
14:18 16.1 °C 12.4 °C 987.4 hPa West 29 km/h 51.5 km/h 79 % 0 mm 715 W/m2
14:23 16.3 °C 12.7 °C 987.7 hPa WNW 30.6 km/h 48.3 km/h 79 % 0 mm 686 W/m2
14:28 16.5 °C 12.8 °C 987.7 hPa WNW 27.4 km/h 48.3 km/h 79 % 0 mm 824 W/m2
14:33 16.7 °C 12.8 °C 987.7 hPa WNW 24.1 km/h 43.5 km/h 78 % 0 mm 485 W/m2
14:38 16.7 °C 12.4 °C 988 hPa WNW 25.7 km/h 46.7 km/h 76 % 0 mm 466 W/m2
14:43 16.4 °C 12.6 °C 988 hPa West 24.1 km/h 46.7 km/h 78 % 0 mm 598 W/m2
14:44 16.5 °C 12.7 °C 988 hPa West 24.1 km/h 46.7 km/h 78 % 0 mm 703 W/m2
14:49 16.6 °C 12.6 °C 988 hPa WNW 22.5 km/h 41.8 km/h 77 % 0 mm 698 W/m2
14:54 16.8 °C 12.7 °C 988 hPa WNW 25.7 km/h 43.5 km/h 77 % 0 mm 738 W/m2
14:59 16.9 °C 12.7 °C 988 hPa WNW 24.1 km/h 43.5 km/h 76 % 0 mm 657 W/m2
15:04 17.1 °C 13.2 °C 988 hPa WNW 22.5 km/h 41.8 km/h 78 % 0 mm 661 W/m2
15:09 17.1 °C 12.6 °C 988 hPa WNW 22.5 km/h 41.8 km/h 75 % 0 mm 661 W/m2
15:14 16.8 °C 12.3 °C 988.4 hPa WNW 27.4 km/h 43.5 km/h 75 % 0 mm 169 W/m2
15:19 16.7 °C 12.4 °C 988.4 hPa West 27.4 km/h 43.5 km/h 76 % 0 mm 169 W/m2
15:24 16.9 °C 12.4 °C 988.4 hPa West 27.4 km/h 48.3 km/h 75 % 0 mm 193 W/m2
15:29 16.9 °C 12.4 °C 988.4 hPa WNW 29 km/h 48.3 km/h 75 % 0 mm 780 W/m2
15:34 17.1 °C 12.6 °C 988.4 hPa WNW 30.6 km/h 48.3 km/h 75 % 0 mm 654 W/m2
15:39 17.2 °C 12.7 °C 988.7 hPa WNW 25.7 km/h 48.3 km/h 75 % 0 mm 663 W/m2
15:44 17.2 °C 12.5 °C 988.7 hPa WNW 25.7 km/h 56.3 km/h 74 % 0 mm 527 W/m2
15:49 17.1 °C 12.4 °C 988.7 hPa West 30.6 km/h 56.3 km/h 74 % 0 mm 561 W/m2
15:54 17 °C 12.3 °C 989.1 hPa West 29 km/h 46.7 km/h 74 % 0 mm 371 W/m2
15:59 16.8 °C 12.1 °C 989.1 hPa WNW 29 km/h 54.7 km/h 74 % 0 mm 179 W/m2
16:04 16.4 °C 11.8 °C 989.4 hPa WNW 30.6 km/h 56.3 km/h 74 % 0 mm 216 W/m2
16:09 16.1 °C 11.7 °C 989.4 hPa WNW 32.2 km/h 56.3 km/h 75 % 0 mm 253 W/m2
16:14 16.2 °C 11.9 °C 989.4 hPa WNW 29 km/h 53.1 km/h 76 % 0 mm 454 W/m2
16:19 16.3 °C 11.8 °C 989.4 hPa WNW 29 km/h 53.1 km/h 75 % 0 mm 471 W/m2
16:24 16.4 °C 11.9 °C 989.7 hPa WNW 29 km/h 48.3 km/h 75 % 0 mm 424 W/m2
16:29 16.5 °C 11.8 °C 989.7 hPa WNW 29 km/h 49.9 km/h 74 % 0 mm 415 W/m2
16:34 16.5 °C 11.7 °C 989.7 hPa WNW 32.2 km/h 51.5 km/h 73 % 0 mm 396 W/m2
16:39 16.4 °C 11.3 °C 989.7 hPa WNW 33.8 km/h 54.7 km/h 72 % 0 mm 374 W/m2
16:44 16.5 °C 11.4 °C 990.1 hPa WNW 30.6 km/h 54.7 km/h 72 % 0 mm 383 W/m2
16:49 16.6 °C 11.3 °C 990.1 hPa WNW 25.7 km/h 43.5 km/h 71 % 0 mm 411 W/m2
16:54 16.6 °C 11.1 °C 990.1 hPa WNW 27.4 km/h 49.9 km/h 70 % 0 mm 357 W/m2
16:59 16.7 °C 11.2 °C 990.4 hPa WNW 29 km/h 49.9 km/h 70 % 0 mm 338 W/m2
17:04 16.5 °C 10.8 °C 990.4 hPa WNW 30.6 km/h 54.7 km/h 69 % 0 mm 323 W/m2
17:09 16.4 °C 10.5 °C 990.7 hPa WNW 33.8 km/h 54.7 km/h 68 % 0 mm 306 W/m2
17:14 16.2 °C 10.5 °C 990.7 hPa WNW 32.2 km/h 51.5 km/h 69 % 0 mm 297 W/m2
17:19 16.2 °C 10.5 °C 990.7 hPa WNW 29 km/h 49.9 km/h 69 % 0 mm 287 W/m2
17:24 16.2 °C 10.5 °C 990.7 hPa WNW 25.7 km/h 48.3 km/h 69 % 0 mm 281 W/m2
17:29 16.2 °C 10.5 °C 991.1 hPa WNW 27.4 km/h 48.3 km/h 69 % 0 mm 250 W/m2
17:34 16.1 °C 10.4 °C 991.1 hPa WNW 29 km/h 54.7 km/h 69 % 0 mm 241 W/m2
17:39 16 °C 10.6 °C 991.1 hPa WNW 29 km/h 54.7 km/h 70 % 0 mm 221 W/m2
17:44 15.9 °C 10.4 °C 991.1 hPa WNW 25.7 km/h 48.3 km/h 70 % 0 mm 209 W/m2
17:49 15.8 °C 10.3 °C 991.1 hPa WNW 25.7 km/h 48.3 km/h 70 % 0 mm 183 W/m2
17:54 15.7 °C 10.4 °C 991.1 hPa WNW 25.7 km/h 48.3 km/h 71 % 0 mm 158 W/m2
17:59 15.4 °C 10.2 °C 991.4 hPa WNW 29 km/h 48.3 km/h 71 % 0 mm 102 W/m2
18:04 15.2 °C 10 °C 991.4 hPa WNW 27.4 km/h 48.3 km/h 71 % 0 mm 90 W/m2
18:10 15.1 °C 10.1 °C 991.8 hPa WNW 27.4 km/h 48.3 km/h 72 % 0 mm 83 W/m2
18:15 14.8 °C 10 °C 991.8 hPa WNW 27.4 km/h 48.3 km/h 73 % 0 mm 95 W/m2
18:20 14.8 °C 10 °C 991.8 hPa WNW 29 km/h 46.7 km/h 73 % 0 mm 137 W/m2
18:25 14.8 °C 10 °C 991.8 hPa WNW 25.7 km/h 45.1 km/h 73 % 0 mm 113 W/m2
18:30 14.8 °C 10 °C 992.1 hPa WNW 22.5 km/h 38.6 km/h 73 % 0 mm 104 W/m2
18:35 14.7 °C 10.1 °C 992.1 hPa WNW 24.1 km/h 41.8 km/h 74 % 0 mm 102 W/m2
18:40 14.6 °C 10 °C 992.1 hPa WNW 25.7 km/h 45.1 km/h 74 % 0 mm 93 W/m2
18:45 14.5 °C 9.9 °C 992.1 hPa WNW 25.7 km/h 46.7 km/h 74 % 0 mm 81 W/m2
18:50 14.4 °C 9.8 °C 992.4 hPa WNW 25.7 km/h 46.7 km/h 74 % 0 mm 70 W/m2
18:55 14.4 °C 9.8 °C 992.4 hPa WNW 25.7 km/h 46.7 km/h 74 % 0 mm 56 W/m2
19:00 14.3 °C 9.7 °C 992.4 hPa WNW 29 km/h 48.3 km/h 74 % 0 mm 39 W/m2
19:05 14.2 °C 9.6 °C 992.8 hPa WNW 29 km/h 48.3 km/h 74 % 0 mm 30 W/m2
19:10 14.1 °C 9.7 °C 992.8 hPa WNW 25.7 km/h 46.7 km/h 75 % 0 mm 25 W/m2
19:15 14 °C 9.6 °C 992.8 hPa WNW 22.5 km/h 43.5 km/h 75 % 0 mm 21 W/m2
19:20 13.9 °C 9.7 °C 992.8 hPa WNW 22.5 km/h 43.5 km/h 76 % 0 mm 19 W/m2
19:25 13.8 °C 9.7 °C 992.8 hPa WNW 22.5 km/h 37 km/h 76 % 0 mm 14 W/m2
19:30 13.7 °C 9.7 °C 993.1 hPa WNW 22.5 km/h 40.2 km/h 77 % 0 mm 11 W/m2
19:35 13.6 °C 9.8 °C 993.1 hPa WNW 22.5 km/h 40.2 km/h 78 % 0 mm 7 W/m2
19:40 13.6 °C 9.8 °C 993.1 hPa WNW 22.5 km/h 38.6 km/h 78 % 0 mm 5 W/m2
19:45 13.5 °C 9.9 °C 993.1 hPa WNW 22.5 km/h 40.2 km/h 79 % 0 mm 0 W/m2
19:50 13.4 °C 9.8 °C 993.5 hPa WNW 22.5 km/h 40.2 km/h 79 % 0 mm 0 W/m2
19:54 13.4 °C 9.8 °C 993.5 hPa WNW 22.5 km/h 40.2 km/h 79 % 0 mm 0 W/m2
19:59 13.3 °C 9.7 °C 993.5 hPa WNW 24.1 km/h 38.6 km/h 79 % 0 mm 0 W/m2
20:04 13.3 °C 9.7 °C 993.5 hPa WNW 25.7 km/h 40.2 km/h 79 % 0 mm 0 W/m2
20:09 13.3 °C 9.9 °C 993.8 hPa WNW 22.5 km/h 43.5 km/h 80 % 0 mm 0 W/m2
20:14 13.2 °C 9.8 °C 993.8 hPa WNW 22.5 km/h 43.5 km/h 80 % 0 mm 0 W/m2
20:19 13.2 °C 9.8 °C 993.8 hPa WNW 24.1 km/h 41.8 km/h 80 % 0 mm 0 W/m2
20:24 13.2 °C 9.8 °C 993.8 hPa WNW 25.7 km/h 45.1 km/h 80 % 0 mm 0 W/m2
20:29 13.2 °C 9.8 °C 994.1 hPa WNW 24.1 km/h 45.1 km/h 80 % 0 mm 0 W/m2
20:34 13.1 °C 9.9 °C 994.1 hPa WNW 22.5 km/h 40.2 km/h 81 % 0 mm 0 W/m2
20:39 13.1 °C 9.9 °C 994.5 hPa WNW 24.1 km/h 41.8 km/h 81 % 0 mm 0 W/m2
20:44 13 °C 9.8 °C 994.5 hPa WNW 24.1 km/h 41.8 km/h 81 % 0 mm 0 W/m2
20:49 12.9 °C 9.7 °C 994.5 hPa WNW 22.5 km/h 41.8 km/h 81 % 0 mm 0 W/m2
20:54 12.9 °C 9.7 °C 994.5 hPa WNW 24.1 km/h 41.8 km/h 81 % 0 mm 0 W/m2
20:59 12.9 °C 9.7 °C 994.5 hPa WNW 22.5 km/h 38.6 km/h 81 % 0 mm 0 W/m2
21:04 12.8 °C 9.6 °C 994.5 hPa WNW 20.9 km/h 38.6 km/h 81 % 0 mm 0 W/m2
21:09 12.8 °C 9.6 °C 994.5 hPa WNW 22.5 km/h 38.6 km/h 81 % 0 mm 0 W/m2
21:14 12.7 °C 9.5 °C 994.5 hPa WNW 24.1 km/h 41.8 km/h 81 % 0 mm 0 W/m2
21:19 12.7 °C 9.5 °C 994.8 hPa WNW 22.5 km/h 41.8 km/h 81 % 0 mm 0 W/m2
21:24 12.7 °C 9.7 °C 994.8 hPa WNW 22.5 km/h 38.6 km/h 82 % 0 mm 0 W/m2
21:29 12.6 °C 9.6 °C 994.8 hPa WNW 22.5 km/h 41.8 km/h 82 % 0 mm 0 W/m2
21:34 12.6 °C 9.6 °C 995.1 hPa WNW 22.5 km/h 41.8 km/h 82 % 0 mm 0 W/m2
21:39 12.6 °C 9.6 °C 995.1 hPa WNW 19.3 km/h 41.8 km/h 82 % 0 mm 0 W/m2
21:44 12.5 °C 9.5 °C 995.1 hPa WNW 19.3 km/h 35.4 km/h 82 % 0 mm 0 W/m2
21:49 12.5 °C 9.5 °C 995.1 hPa WNW 20.9 km/h 35.4 km/h 82 % 0 mm 0 W/m2
21:54 12.5 °C 9.5 °C 995.1 hPa WNW 22.5 km/h 40.2 km/h 82 % 0 mm 0 W/m2
21:59 12.4 °C 9.4 °C 995.1 hPa WNW 22.5 km/h 40.2 km/h 82 % 0 mm 0 W/m2
22:04 12.4 °C 9.4 °C 995.1 hPa WNW 19.3 km/h 35.4 km/h 82 % 0 mm 0 W/m2
22:09 12.3 °C 9.3 °C 995.5 hPa WNW 19.3 km/h 32.2 km/h 82 % 0 mm 0 W/m2
22:14 12.3 °C 9.3 °C 995.5 hPa WNW 17.7 km/h 32.2 km/h 82 % 0 mm 0 W/m2
22:19 12.3 °C 9.3 °C 995.5 hPa West 19.3 km/h 33.8 km/h 82 % 0 mm 0 W/m2
22:24 12.3 °C 9.3 °C 995.8 hPa West 20.9 km/h 37 km/h 82 % 0 mm 0 W/m2
22:29 12.3 °C 9.5 °C 995.5 hPa WNW 20.9 km/h 37 km/h 83 % 0 mm 0 W/m2
22:34 12.2 °C 9.4 °C 995.5 hPa West 22.5 km/h 38.6 km/h 83 % 0 mm 0 W/m2
22:39 12.3 °C 9.5 °C 995.8 hPa West 20.9 km/h 38.6 km/h 83 % 0 mm 0 W/m2
22:44 12.3 °C 9.5 °C 995.8 hPa West 20.9 km/h 35.4 km/h 83 % 0 mm 0 W/m2
22:49 12.3 °C 9.5 °C 995.8 hPa West 19.3 km/h 35.4 km/h 83 % 0 mm 0 W/m2
22:54 12.3 °C 9.5 °C 995.8 hPa West 19.3 km/h 33.8 km/h 83 % 0 mm 0 W/m2
22:59 12.3 °C 9.5 °C 996.2 hPa West 20.9 km/h 38.6 km/h 83 % 0 mm 0 W/m2
23:04 12.3 °C 9.5 °C 996.2 hPa West 19.3 km/h 38.6 km/h 83 % 0 mm 0 W/m2
23:09 12.3 °C 9.5 °C 996.2 hPa West 19.3 km/h 32.2 km/h 83 % 0 mm 0 W/m2
23:14 12.2 °C 9.2 °C 996.2 hPa West 20.9 km/h 41.8 km/h 82 % 0 mm 0 W/m2
23:19 12.2 °C 9.2 °C 996.2 hPa WNW 20.9 km/h 41.8 km/h 82 % 0 mm 0 W/m2
23:25 12.2 °C 9.2 °C 996.5 hPa WNW 20.9 km/h 37 km/h 82 % 0 mm 0 W/m2
23:30 12.2 °C 9.4 °C 996.5 hPa WNW 19.3 km/h 35.4 km/h 83 % 0 mm 0 W/m2
23:35 12.2 °C 9.4 °C 996.5 hPa WNW 19.3 km/h 40.2 km/h 83 % 0 mm 0 W/m2
23:40 12.2 °C 9.6 °C 996.5 hPa WNW 17.7 km/h 40.2 km/h 84 % 0 mm 0 W/m2
23:45 12.1 °C 9.5 °C 996.5 hPa West 17.7 km/h 32.2 km/h 84 % 0 mm 0 W/m2
23:50 12 °C 9.4 °C 996.5 hPa West 17.7 km/h 32.2 km/h 84 % 0 mm 0 W/m2
23:55 12 °C 9.4 °C 996.5 hPa West 17.7 km/h 30.6 km/h 84 % 0 mm 0 W/m2
Delerius-Weather
Compliments of Weather Underground - 2.25 mb

Data updates at regular intervals.